TimeCDT,TemperatureF,Dew PointF,Humidity,Sea Level PressureIn,VisibilityMPH,Wind Direction,Wind SpeedMPH,Gust SpeedMPH,PrecipitationIn,Events,Conditions,WindDirDegrees,DateUTC
12:18 AM,69.8,69.8,100,29.96,10.0,North,5.8,-,N/A,,Mostly Cloudy,360,2013-07-24 05:18:00
12:33 AM,69.8,69.8,100,29.96,10.0,North,5.8,-,N/A,,Overcast,10,2013-07-24 05:33:00
12:38 AM,69.8,69.8,100,29.96,10.0,North,6.9,-,N/A,,Overcast,10,2013-07-24 05:38:00
12:43 AM,69.8,69.8,100,29.97,10.0,North,6.9,-,N/A,,Overcast,10,2013-07-24 05:43:00
12:47 AM,69.8,69.8,100,29.97,10.0,NNE,6.9,-,N/A,,Light Drizzle,20,2013-07-24 05:47:00
12:52 AM,69.8,69.8,100,29.95,10.0,Variable,2.3,-,N/A,,Light Drizzle,0,2013-07-24 05:52:00
12:57 AM,69.8,69.8,100,29.95,10.0,East,2.3,-,N/A,,Light Drizzle,90,2013-07-24 05:57:00
12:58 AM,70.5,70.0,98,29.95,10.0,Variable,1.2,-,0.00,,Light Drizzle,0,2013-07-24 05:58:00
1:13 AM,69.8,69.8,100,29.96,1.5,West,4.6,-,N/A,Rain,Heavy Rain,270,2013-07-24 06:13:00
1:18 AM,69.8,69.8,100,29.95,0.5,South,10.4,-,N/A,Fog-Rain,Heavy Rain,190,2013-07-24 06:18:00
1:23 AM,69.8,69.8,100,29.93,0.8,South,12.7,-,N/A,Rain,Light Rain,180,2013-07-24 06:23:00
1:28 AM,69.8,69.8,100,29.92,2.5,SSW,11.5,-,N/A,Rain,Light Rain,200,2013-07-24 06:28:00
1:33 AM,69.8,69.8,100,29.92,7.0,South,10.4,-,N/A,Rain,Light Rain,180,2013-07-24 06:33:00
1:48 AM,69.8,69.8,100,29.93,10.0,Variable,3.5,-,N/A,Rain,Light Rain,0,2013-07-24 06:48:00
1:51 AM,69.8,69.8,100,29.94,10.0,NNW,5.8,-,N/A,,Scattered Clouds,340,2013-07-24 06:51:00
1:53 AM,69.8,69.8,100,29.94,10.0,Variable,1.2,-,N/A,,Scattered Clouds,0,2013-07-24 06:53:00
1:58 AM,70.3,69.6,98,29.93,10.0,SW,4.6,-,0.24,,Scattered Clouds,230,2013-07-24 06:58:00
2:03 AM,69.8,69.8,100,29.92,10.0,WSW,4.6,-,N/A,,Mostly Cloudy,250,2013-07-24 07:03:00
2:13 AM,69.8,69.8,100,29.91,10.0,SSW,5.8,-,N/A,,Scattered Clouds,210,2013-07-24 07:13:00
2:58 AM,69.8,69.3,98,29.90,10.0,SSW,5.8,-,N/A,,Scattered Clouds,210,2013-07-24 07:58:00
3:03 AM,69.8,69.8,100,29.90,10.0,SW,4.6,-,N/A,,Mostly Cloudy,230,2013-07-24 08:03:00
3:38 AM,69.8,69.8,100,29.89,10.0,South,2.3,-,N/A,,Overcast,190,2013-07-24 08:38:00
3:58 AM,70.2,69.6,98,29.89,10.0,SSW,3.5,-,N/A,,Overcast,210,2013-07-24 08:58:00
4:53 AM,69.8,69.8,100,29.90,10.0,West,2.3,-,N/A,,Scattered Clouds,280,2013-07-24 09:53:00
4:58 AM,70.2,69.3,97,29.90,10.0,WSW,2.3,-,N/A,,Scattered Clouds,240,2013-07-24 09:58:00
5:13 AM,69.8,69.8,100,29.91,10.0,WSW,3.5,-,N/A,,Mostly Cloudy,250,2013-07-24 10:13:00
5:18 AM,69.8,69.8,100,29.91,10.0,WSW,3.5,-,N/A,,Mostly Cloudy,240,2013-07-24 10:18:00
5:43 AM,69.8,69.8,100,29.91,10.0,SW,2.3,-,N/A,,Overcast,230,2013-07-24 10:43:00
5:58 AM,70.7,69.8,97,29.92,10.0,Calm,Calm,-,N/A,,Overcast,0,2013-07-24 10:58:00
6:03 AM,71.6,69.8,94,29.92,10.0,Calm,Calm,-,N/A,,Overcast,0,2013-07-24 11:03:00
6:28 AM,71.6,71.6,100,29.92,10.0,WSW,2.3,-,N/A,,Overcast,250,2013-07-24 11:28:00
6:48 AM,71.6,71.6,100,29.92,10.0,WSW,3.5,-,N/A,,Overcast,250,2013-07-24 11:48:00
6:58 AM,72.3,71.8,98,29.92,10.0,WSW,2.3,-,N/A,,Overcast,250,2013-07-24 11:58:00
7:18 AM,73.4,73.4,100,29.92,10.0,WSW,4.6,-,N/A,,Overcast,250,2013-07-24 12:18:00
7:28 AM,73.4,73.4,100,29.92,10.0,WSW,4.6,-,N/A,,Mostly Cloudy,250,2013-07-24 12:28:00
7:48 AM,75.2,75.2,100,29.92,10.0,West,4.6,-,N/A,,Mostly Cloudy,280,2013-07-24 12:48:00
7:53 AM,75.2,75.2,100,29.92,10.0,West,6.9,-,N/A,,Scattered Clouds,280,2013-07-24 12:53:00
7:58 AM,75.7,74.7,96,29.92,10.0,West,5.8,-,N/A,,Scattered Clouds,280,2013-07-24 12:58:00
8:58 AM,78.1,75.0,90,29.94,10.0,WNW,5.8,-,N/A,,Mostly Cloudy,290,2013-07-24 13:58:00
9:18 AM,78.8,75.2,89,29.93,10.0,WNW,8.1,-,N/A,,Mostly Cloudy,300,2013-07-24 14:18:00
9:43 AM,80.6,75.2,84,29.93,10.0,WNW,9.2,-,N/A,,Mostly Cloudy,290,2013-07-24 14:43:00
9:48 AM,80.6,75.2,84,29.93,10.0,WNW,9.2,-,N/A,,Mostly Cloudy,290,2013-07-24 14:48:00
9:58 AM,81.5,75.7,83,29.93,10.0,WNW,8.1,-,N/A,,Overcast,300,2013-07-24 14:58:00
10:23 AM,82.4,75.2,79,29.93,10.0,West,8.1,-,N/A,,Mostly Cloudy,270,2013-07-24 15:23:00
10:28 AM,82.4,75.2,79,29.93,10.0,WNW,8.1,-,N/A,,Mostly Cloudy,290,2013-07-24 15:28:00
10:58 AM,83.3,76.5,80,29.92,10.0,WSW,6.9,-,N/A,,Mostly Cloudy,250,2013-07-24 15:58:00
11:58 AM,86.0,77.0,74,29.92,10.0,West,10.4,-,N/A,,Overcast,270,2013-07-24 16:58:00
12:58 PM,84.6,76.3,76,29.89,10.0,WSW,4.6,-,N/A,,Overcast,240,2013-07-24 17:58:00
1:58 PM,87.1,77.4,73,29.88,10.0,WSW,12.7,-,N/A,,Overcast,240,2013-07-24 18:58:00
2:15 PM,84.2,71.6,66,29.87,10.0,West,13.8,-,N/A,Thunderstorm,Thunderstorm,260,2013-07-24 19:15:00
2:30 PM,80.6,69.8,70,29.87,10.0,SW,9.2,17.3,N/A,,Mostly Cloudy,220,2013-07-24 19:30:00
2:38 PM,80.6,69.8,70,29.86,10.0,WSW,8.1,-,N/A,Thunderstorm,Thunderstorm,250,2013-07-24 19:38:00
2:53 PM,82.4,69.8,66,29.88,10.0,West,9.2,-,N/A,,Mostly Cloudy,270,2013-07-24 19:53:00
2:58 PM,81.7,69.8,67,29.88,10.0,West,6.9,-,N/A,,Mostly Cloudy,280,2013-07-24 19:58:00
3:08 PM,80.6,71.6,74,29.88,10.0,West,5.8,-,N/A,Thunderstorm,Thunderstorm,280,2013-07-24 20:08:00
3:23 PM,80.6,71.6,74,29.88,10.0,NW,10.4,-,N/A,,Mostly Cloudy,310,2013-07-24 20:23:00
3:53 PM,78.8,73.4,83,29.88,10.0,West,8.1,-,N/A,,Light Drizzle,270,2013-07-24 20:53:00
3:58 PM,78.6,72.7,82,29.88,10.0,WNW,9.2,-,0.00,,Light Drizzle,290,2013-07-24 20:58:00
4:05 PM,77.0,73.4,89,29.89,10.0,West,12.7,-,N/A,,Partly Cloudy,280,2013-07-24 21:05:00
4:24 PM,75.2,71.6,89,29.90,10.0,West,9.2,-,N/A,,Light Drizzle,270,2013-07-24 21:24:00
4:44 PM,75.2,71.6,89,29.90,10.0,West,6.9,-,N/A,Rain,Light Rain,260,2013-07-24 21:44:00
4:58 PM,74.7,72.0,91,29.90,10.0,WNW,4.6,-,0.01,Rain,Light Rain,290,2013-07-24 21:58:00
5:36 PM,75.2,71.6,89,29.91,10.0,North,3.5,-,N/A,,Overcast,360,2013-07-24 22:36:00
5:58 PM,74.8,72.5,92,29.91,10.0,NNE,1.2,-,0.00,,Overcast,30,2013-07-24 22:58:00
6:11 PM,75.2,73.4,94,29.91,10.0,Calm,Calm,-,N/A,,Light Drizzle,0,2013-07-24 23:11:00
6:25 PM,75.2,73.4,94,29.91,10.0,ESE,2.3,-,N/A,,Overcast,110,2013-07-24 23:25:00
6:58 PM,74.5,73.0,95,29.90,10.0,SE,2.3,-,0.00,,Partly Cloudy,130,2013-07-24 23:58:00
7:21 PM,75.2,73.4,94,29.90,10.0,ESE,2.3,-,N/A,,Light Drizzle,110,2013-07-25 00:21:00
7:55 PM,73.4,73.4,100,29.90,10.0,Calm,Calm,-,N/A,,Scattered Clouds,0,2013-07-25 00:55:00
7:58 PM,74.1,73.2,97,29.91,10.0,Calm,Calm,-,0.00,,Scattered Clouds,0,2013-07-25 00:58:00
8:58 PM,73.8,73.2,98,29.90,10.0,SW,5.8,-,N/A,,Mostly Cloudy,220,2013-07-25 01:58:00
9:10 PM,73.4,73.4,100,29.90,10.0,SSW,5.8,-,N/A,,Scattered Clouds,210,2013-07-25 02:10:00
9:55 PM,73.4,73.4,100,29.90,10.0,SW,5.8,-,N/A,,Mostly Cloudy,220,2013-07-25 02:55:00
9:58 PM,73.2,72.9,99,29.90,10.0,SW,4.6,-,N/A,,Mostly Cloudy,220,2013-07-25 02:58:00
10:18 PM,73.4,73.4,100,29.90,10.0,SSW,4.6,-,N/A,,Overcast,210,2013-07-25 03:18:00
10:23 PM,73.4,73.4,100,29.90,10.0,SSW,4.6,-,N/A,,Overcast,210,2013-07-25 03:23:00
10:58 PM,73.4,73.4,100,29.90,10.0,West,3.5,-,N/A,,Overcast,270,2013-07-25 03:58:00
11:23 PM,73.4,73.4,100,29.90,10.0,WSW,4.6,-,N/A,,Mostly Cloudy,240,2013-07-25 04:23:00
11:28 PM,73.4,73.4,100,29.90,10.0,SW,4.6,-,N/A,,Scattered Clouds,230,2013-07-25 04:28:00
11:58 PM,72.9,72.5,99,29.91,10.0,NW,3.5,-,N/A,,Partly Cloudy,320,2013-07-25 04:58:00